Time;durP1;ratioP1;P1;durP2;ratioP2;P2;SDS_P1;SDS_P2;PMS_P1;PMS_P2;Temp;Humidity;BMP_temperature;BMP_pressure;BME280_temperature;BME280_humidity;BME280_pressure;Samples;Min_cycle;Max_cycle;Signal;HPM_P1;HPM_P2
2022/04/24 00:00:47;;;;;;;23.35;15.32;;;;;;;8.15;86.69;97081.30;1719328;83;21075;-85
2022/04/24 00:03:14;;;;;;;23.35;14.63;;;;;;;8.15;86.93;97074.70;1719327;83;21106;-85
2022/04/24 00:05:41;;;;;;;27.05;15.68;;;;;;;8.18;86.26;97079.03;1719213;83;20984;-85
2022/04/24 00:08:08;;;;;;;23.77;14.50;;;;;;;8.22;86.58;97082.42;1719495;83;21015;-84
2022/04/24 00:10:38;;;;;;;26.70;16.12;;;;;;;8.23;85.99;97075.77;1719725;83;21015;-84
2022/04/24 00:13:04;;;;;;;25.90;16.02;;;;;;;8.20;87.44;97079.83;1719039;83;21067;-84
2022/04/24 00:15:30;;;;;;;27.17;16.57;;;;;;;8.13;88.32;97079.63;1719756;83;21012;-84
2022/04/24 00:17:57;;;;;;;28.35;17.48;;;;;;;8.10;86.68;97083.70;1719602;83;21086;-83
2022/04/24 00:20:24;;;;;;;24.98;15.90;;;;;;;8.10;86.64;97082.39;1719869;83;21015;-84
2022/04/24 00:22:50;;;;;;;26.42;14.75;;;;;;;8.10;86.44;97087.19;1720369;83;21020;-85
2022/04/24 00:25:17;;;;;;;24.87;15.38;;;;;;;8.08;86.05;97077.60;1720401;83;21517;-84
2022/04/24 00:27:44;;;;;;;24.18;15.48;;;;;;;8.08;86.79;97090.80;1719702;83;21051;-84
2022/04/24 00:30:11;;;;;;;24.80;15.55;;;;;;;8.08;86.75;97086.39;1720159;83;21047;-84
2022/04/24 00:32:38;;;;;;;25.82;15.53;;;;;;;8.09;87.16;97082.83;1719681;83;21008;-84
2022/04/24 00:35:06;;;;;;;25.68;14.28;;;;;;;8.09;86.61;97080.67;1719888;83;21442;-85
2022/04/24 00:37:32;;;;;;;23.95;14.10;;;;;;;8.06;86.39;97085.12;1719544;83;21024;-85
2022/04/24 00:39:59;;;;;;;23.45;13.75;;;;;;;8.04;86.88;97089.59;1720001;83;21012;-84
2022/04/24 00:42:26;;;;;;;22.82;13.98;;;;;;;8.02;87.09;97082.66;1720141;83;20972;-85
2022/04/24 00:44:53;;;;;;;21.23;13.08;;;;;;;7.97;86.69;97074.87;1719917;83;21059;-84
2022/04/24 00:47:28;;;;;;;22.22;12.80;;;;;;;7.95;87.55;97077.16;1719100;83;21452;-84
2022/04/24 00:49:55;;;;;;;23.18;13.15;;;;;;;7.90;87.29;97072.05;1699390;83;21019;-85
2022/04/24 00:52:22;;;;;;;23.55;14.05;;;;;;;7.84;87.69;97074.91;1722482;82;21047;-85
2022/04/24 00:54:51;;;;;;;24.98;14.18;;;;;;;7.82;87.23;97068.36;1734555;83;21030;-84
2022/04/24 00:57:17;;;;;;;25.23;13.45;;;;;;;7.73;86.87;97061.59;1733941;83;21007;-84
2022/04/24 00:59:44;;;;;;;24.15;14.20;;;;;;;7.69;86.78;97069.23;1734082;83;21003;-84
2022/04/24 01:02:10;;;;;;;24.52;15.10;;;;;;;7.60;86.73;97058.98;1733839;83;21459;-85
2022/04/24 01:04:39;;;;;;;24.37;14.45;;;;;;;7.51;87.17;97059.67;1734315;83;20987;-85
2022/04/24 01:07:07;;;;;;;21.23;13.35;;;;;;;7.47;86.80;97061.16;1734154;83;20955;-85
2022/04/24 01:09:35;;;;;;;23.10;14.75;;;;;;;7.36;86.21;97066.76;1734310;83;21023;-85
2022/04/24 01:12:04;;;;;;;25.70;15.15;;;;;;;7.26;86.33;97069.68;1734056;83;21110;-85
2022/04/24 01:14:33;;;;;;;25.32;14.55;;;;;;;7.17;85.98;97067.77;1734296;83;21041;-85
2022/04/24 01:17:02;;;;;;;23.95;13.65;;;;;;;7.07;86.32;97068.52;1734038;83;21054;-85
2022/04/24 01:19:29;;;;;;;27.73;14.63;;;;;;;7.01;87.76;97073.52;1734014;83;21022;-85
2022/04/24 01:21:57;;;;;;;22.82;14.00;;;;;;;6.93;86.96;97077.70;1734286;83;21001;-85
2022/04/24 01:24:27;;;;;;;25.70;14.07;;;;;;;6.84;87.66;97076.20;1734146;83;20978;-86
2022/04/24 01:26:54;;;;;;;24.35;14.30;;;;;;;6.76;87.01;97076.88;1734754;83;20990;-85
2022/04/24 01:29:22;;;;;;;25.35;15.08;;;;;;;6.70;87.17;97075.74;1734120;83;20999;-85
2022/04/24 01:31:49;;;;;;;29.05;15.45;;;;;;;6.64;86.61;97079.41;1733867;83;21014;-85
2022/04/24 01:34:17;;;;;;;24.77;14.53;;;;;;;6.58;86.63;97088.80;1734343;83;21347;-85
2022/04/24 01:36:44;;;;;;;22.52;13.75;;;;;;;6.53;87.59;97084.13;1709432;83;20979;-85
2022/04/24 01:39:11;;;;;;;27.98;15.75;;;;;;;6.47;89.00;97094.36;1734525;83;21015;-85
2022/04/24 01:41:38;;;;;;;25.60;14.43;;;;;;;6.43;87.40;97086.12;1734316;83;21026;-85
2022/04/24 01:44:06;;;;;;;26.52;15.85;;;;;;;6.38;86.92;97083.64;1733925;83;21126;-85
2022/04/24 01:46:32;;;;;;;29.57;14.73;;;;;;;6.32;86.85;97085.12;1734114;83;21428;-85
2022/04/24 01:48:59;;;;;;;26.48;13.75;;;;;;;6.25;86.94;97091.45;1734120;83;21018;-85
2022/04/24 01:51:27;;;;;;;25.50;14.15;;;;;;;6.21;87.42;97085.41;1734205;83;21034;-85
2022/04/24 01:53:53;;;;;;;27.90;15.48;;;;;;;6.17;88.56;97090.34;1733913;83;21023;-85
2022/04/24 01:56:20;;;;;;;28.52;14.40;;;;;;;6.13;87.79;97081.67;1733992;83;21038;-85
2022/04/24 01:58:47;;;;;;;28.77;14.98;;;;;;;6.11;87.66;97076.91;1733983;83;21459;-85
2022/04/24 02:01:14;;;;;;;23.45;13.25;;;;;;;6.07;87.42;97078.73;1733858;83;21038;-85
2022/04/24 02:03:41;;;;;;;26.00;14.07;;;;;;;6.05;87.35;97077.93;1734017;83;21018;-85
2022/04/24 02:06:07;;;;;;;27.45;14.20;;;;;;;6.01;87.43;97067.48;1733510;83;21007;-85
2022/04/24 02:08:35;;;;;;;27.02;14.40;;;;;;;5.98;88.05;97065.80;1734069;83;20979;-85
2022/04/24 02:11:06;;;;;;;26.10;14.43;;;;;;;5.91;88.37;97068.19;1734552;83;21035;-85
2022/04/24 02:13:34;;;;;;;26.17;15.08;;;;;;;5.88;87.95;97059.92;1734048;83;21026;-85
2022/04/24 02:16:01;;;;;;;30.48;16.60;;;;;;;5.86;87.78;97061.71;1734077;83;21483;-85
2022/04/24 02:18:28;;;;;;;30.23;16.23;;;;;;;5.87;87.42;97053.38;1734250;83;21010;-85
2022/04/24 02:20:54;;;;;;;22.60;14.60;;;;;;;5.85;87.54;97053.89;1734043;83;21034;-85
2022/04/24 02:23:21;;;;;;;23.73;14.38;;;;;;;5.84;87.65;97056.08;1734182;83;21022;-85
2022/04/24 02:25:48;;;;;;;22.75;13.30;;;;;;;5.81;87.54;97054.39;1734038;83;21043;-85
2022/04/24 02:28:14;;;;;;;20.55;12.13;;;;;;;5.84;87.67;97051.70;1733945;83;20995;-84
2022/04/24 02:30:42;;;;;;;19.40;12.28;;;;;;;5.84;87.79;97055.64;1734573;83;21010;-85
2022/04/24 02:33:09;;;;;;;22.07;13.22;;;;;;;5.84;87.92;97062.66;1734066;83;21058;-85
2022/04/24 02:35:37;;;;;;;21.17;12.85;;;;;;;5.85;88.15;97057.84;1733674;83;21030;-85
2022/04/24 02:38:04;;;;;;;19.25;11.95;;;;;;;5.86;88.08;97061.71;1734016;83;21047;-84
2022/04/24 02:40:31;;;;;;;23.00;12.03;;;;;;;5.87;88.15;97061.27;1733955;83;21026;-85
2022/04/24 02:42:57;;;;;;;20.48;11.73;;;;;;;5.89;88.64;97065.59;1734190;83;21022;-84
2022/04/24 02:45:24;;;;;;;20.05;12.20;;;;;;;5.95;88.52;97068.52;1734012;83;20996;-84
2022/04/24 02:47:51;;;;;;;18.95;11.25;;;;;;;5.97;88.44;97071.96;1734485;83;21536;-84
2022/04/24 02:50:18;;;;;;;18.05;11.12;;;;;;;5.97;88.68;97074.59;1734156;83;21066;-84
2022/04/24 02:52:53;;;;;;;18.37;11.45;;;;;;;6.00;88.51;97073.65;1732843;83;21475;-84
2022/04/24 02:55:22;;;;;;;17.20;10.45;;;;;;;6.02;88.90;97076.65;1719750;83;21019;-84
2022/04/24 02:57:49;;;;;;;20.90;12.03;;;;;;;6.09;89.23;97076.08;1719773;83;21006;-84
2022/04/24 03:00:25;;;;;;;16.05;9.78;;;;;;;6.11;89.23;97071.66;1719789;83;21606;-84
2022/04/24 03:02:53;;;;;;;17.95;10.90;;;;;;;6.10;88.54;97067.27;1719702;83;21440;-84
2022/04/24 03:05:24;;;;;;;15.65;9.83;;;;;;;6.06;88.39;97076.14;1720308;83;21023;-83
2022/04/24 03:07:51;;;;;;;17.57;9.98;;;;;;;6.04;88.77;97067.44;1720317;83;21074;-84
2022/04/24 03:10:18;;;;;;;16.05;10.20;;;;;;;6.05;88.58;97067.41;1720182;83;21003;-84
2022/04/24 03:12:45;;;;;;;18.48;11.00;;;;;;;6.04;88.30;97070.95;1720309;83;20972;-84
2022/04/24 03:15:14;;;;;;;17.90;9.95;;;;;;;5.98;88.84;97078.09;1720388;83;21047;-84
2022/04/24 03:17:41;;;;;;;16.45;10.30;;;;;;;5.97;88.52;97086.90;1720008;83;20976;-83
2022/04/24 03:20:10;;;;;;;19.87;10.48;;;;;;;5.91;88.86;97085.28;1720165;83;21012;-84
2022/04/24 03:22:36;;;;;;;18.05;11.30;;;;;;;5.91;88.42;97080.89;1720145;83;21055;-84
2022/04/24 03:25:07;;;;;;;14.83;9.85;;;;;;;5.91;88.23;97098.43;1720256;83;21449;-84
2022/04/24 03:27:33;;;;;;;15.25;10.50;;;;;;;5.90;88.47;97107.23;1720313;83;20980;-84
2022/04/24 03:30:00;;;;;;;17.82;10.63;;;;;;;5.83;87.92;97108.27;1720255;83;21082;-83
2022/04/24 03:32:34;;;;;;;17.60;10.58;;;;;;;5.80;88.27;97114.47;1720414;83;21467;-83
2022/04/24 03:35:03;;;;;;;18.48;10.40;;;;;;;5.82;87.97;97104.79;1720452;83;21023;-84
2022/04/24 03:37:30;;;;;;;16.17;10.75;;;;;;;5.83;88.05;97097.75;1720302;83;21011;-84
2022/04/24 03:39:57;;;;;;;19.52;11.33;;;;;;;5.84;87.73;97097.72;1720474;83;21444;-84
2022/04/24 03:42:25;;;;;;;19.10;11.83;;;;;;;5.85;87.68;97103.38;1720602;83;21052;-84
2022/04/24 03:44:57;;;;;;;19.20;12.00;;;;;;;5.80;87.79;97101.32;1720298;83;21063;-84
2022/04/24 03:47:24;;;;;;;18.23;10.65;;;;;;;5.73;88.46;97099.76;1720453;83;21007;-83
2022/04/24 03:49:51;;;;;;;17.85;10.72;;;;;;;5.65;89.41;97104.73;1720508;83;20995;-84
2022/04/24 03:52:18;;;;;;;17.30;11.30;;;;;;;5.61;88.66;97108.33;1720380;83;21466;-84
2022/04/24 03:54:45;;;;;;;17.15;11.57;;;;;;;5.64;88.51;97117.91;1720423;82;21008;-84
2022/04/24 03:57:11;;;;;;;16.57;10.48;;;;;;;5.67;89.02;97120.48;1720574;83;21420;-83
2022/04/24 03:59:38;;;;;;;18.20;12.00;;;;;;;5.70;88.22;97125.67;1700045;83;21008;-83
2022/04/24 04:02:06;;;;;;;21.73;11.53;;;;;;;5.74;88.64;97125.14;1720382;83;21384;-83
2022/04/24 04:04:34;;;;;;;19.27;11.70;;;;;;;5.73;90.54;97128.20;1720322;83;20996;-84
2022/04/24 04:07:00;;;;;;;24.40;13.60;;;;;;;5.75;90.67;97121.60;1720404;83;21084;-83
2022/04/24 04:09:27;;;;;;;23.65;13.40;;;;;;;5.82;89.44;97127.14;1720298;83;20977;-83
2022/04/24 04:11:53;;;;;;;21.17;12.98;;;;;;;5.87;90.22;97130.52;1720192;83;21019;-83
2022/04/24 04:14:21;;;;;;;21.73;13.13;;;;;;;5.87;89.08;97123.07;1720393;83;20976;-83
2022/04/24 04:16:49;;;;;;;21.65;13.53;;;;;;;5.87;88.83;97123.07;1720372;83;20956;-83
2022/04/24 04:19:17;;;;;;;21.17;13.43;;;;;;;5.97;88.74;97127.67;1720243;83;21016;-83
2022/04/24 04:21:44;;;;;;;20.00;12.58;;;;;;;6.05;88.82;97126.59;1720418;83;20972;-83
2022/04/24 04:24:11;;;;;;;18.30;12.82;;;;;;;6.11;89.00;97122.95;1720364;83;21070;-83
2022/04/24 04:26:38;;;;;;;18.23;11.85;;;;;;;6.18;88.70;97117.05;1720375;83;20967;-83
2022/04/24 04:29:05;;;;;;;19.12;12.03;;;;;;;6.23;88.76;97123.05;1720616;83;21027;-83
2022/04/24 04:31:31;;;;;;;17.65;11.35;;;;;;;6.31;88.87;97118.94;1720541;83;20983;-83
2022/04/24 04:33:58;;;;;;;19.57;12.37;;;;;;;6.39;88.93;97117.41;1720368;83;21434;-83
2022/04/24 04:36:27;;;;;;;31.12;18.67;;;;;;;6.39;88.67;97120.05;1720527;83;20944;-83
2022/04/24 04:38:54;;;;;;;20.35;12.78;;;;;;;6.39;88.70;97122.20;1720226;83;20985;-83
2022/04/24 04:41:21;;;;;;;17.60;11.50;;;;;;;6.41;89.23;97119.09;1720233;83;21623;-83
2022/04/24 04:43:47;;;;;;;20.65;12.58;;;;;;;6.44;89.01;97118.15;1720165;83;21019;-83
2022/04/24 04:46:14;;;;;;;18.92;12.03;;;;;;;6.51;88.98;97119.70;1720042;83;20964;-83
2022/04/24 04:48:41;;;;;;;21.80;13.05;;;;;;;6.53;89.30;97120.97;1719938;83;20987;-83
2022/04/24 04:51:07;;;;;;;19.67;12.28;;;;;;;6.56;88.96;97114.32;1720435;83;20983;-83
2022/04/24 04:53:34;;;;;;;18.60;11.70;;;;;;;6.63;88.98;97111.03;1723084;82;21003;-83
2022/04/24 04:56:01;;;;;;;18.67;11.90;;;;;;;6.68;88.86;97106.53;1734541;83;21070;-83
2022/04/24 04:58:27;;;;;;;17.82;12.28;;;;;;;6.71;88.98;97095.89;1734554;83;21066;-83
2022/04/24 05:00:55;;;;;;;20.40;12.75;;;;;;;6.79;89.06;97093.04;1734538;83;21393;-84
2022/04/24 05:03:22;;;;;;;19.52;12.45;;;;;;;6.83;88.70;97090.29;1734441;83;20976;-83
2022/04/24 05:05:49;;;;;;;18.87;12.50;;;;;;;6.85;88.66;97086.30;1734624;83;20979;-82
2022/04/24 05:08:15;;;;;;;19.15;13.10;;;;;;;6.81;88.29;97097.35;1734445;83;20971;-83
2022/04/24 05:10:42;;;;;;;20.30;12.88;;;;;;;6.77;88.88;97102.77;1734661;83;21011;-85
2022/04/24 05:13:08;;;;;;;20.57;13.00;;;;;;;6.77;88.84;97092.23;1734516;83;21031;-83
2022/04/24 05:15:35;;;;;;;21.85;13.48;;;;;;;6.82;88.83;97096.91;1734345;83;21468;-83
2022/04/24 05:18:02;;;;;;;19.92;13.70;;;;;;;6.83;89.77;97098.63;1734498;83;21014;-84
2022/04/24 05:20:28;;;;;;;19.25;13.10;;;;;;;6.83;89.82;97100.83;1734569;83;21504;-84
2022/04/24 05:23:07;;;;;;;19.87;13.15;;;;;;;6.90;89.62;97109.86;1734445;83;21038;-85
2022/04/24 05:25:34;;;;;;;21.68;13.90;;;;;;;6.96;89.28;97102.64;1734560;83;20987;-84
2022/04/24 05:28:03;;;;;;;21.20;13.40;;;;;;;7.07;89.57;97098.38;1734546;83;21289;-84
2022/04/24 05:30:30;;;;;;;26.42;13.40;;;;;;;7.20;89.06;97101.95;1734417;83;21003;-84
2022/04/24 05:32:57;;;;;;;21.37;13.43;;;;;;;7.30;88.81;97103.38;1734673;83;21528;-85
2022/04/24 05:35:24;;;;;;;22.73;13.22;;;;;;;7.39;89.09;97104.86;1734522;83;20983;-83
2022/04/24 05:37:51;;;;;;;25.65;13.00;;;;;;;7.49;88.66;97112.05;1734433;83;21033;-84
2022/04/24 05:40:18;;;;;;;21.82;13.53;;;;;;;7.58;88.46;97106.92;1734495;83;20983;-84
2022/04/24 05:42:54;;;;;;;23.07;13.98;;;;;;;7.67;88.15;97102.68;1734671;83;21396;-84
2022/04/24 05:45:24;;;;;;;22.32;14.25;;;;;;;7.75;88.30;97112.98;1734755;83;20983;-84
2022/04/24 05:47:54;;;;;;;22.67;14.00;;;;;;;7.85;88.36;97105.16;1734890;83;20991;-84
2022/04/24 05:50:23;;;;;;;22.15;13.83;;;;;;;7.94;88.16;97102.70;1734926;83;21030;-84
2022/04/24 05:52:52;;;;;;;22.62;13.10;;;;;;;8.02;87.93;97107.72;1737094;83;21066;-84
2022/04/24 05:55:18;;;;;;;21.50;14.00;;;;;;;8.12;87.94;97104.30;1737785;82;21046;-84
2022/04/24 05:57:45;;;;;;;22.13;14.00;;;;;;;8.21;87.76;97102.67;1737281;83;21042;-84
2022/04/24 06:00:12;;;;;;;22.90;13.85;;;;;;;8.32;88.00;97102.30;1735224;83;21010;-84
2022/04/24 06:02:41;;;;;;;21.62;13.75;;;;;;;8.45;87.84;97109.33;1734584;83;21452;-84
2022/04/24 06:05:08;;;;;;;23.47;14.85;;;;;;;8.59;87.59;97112.82;1734692;83;21022;-83
2022/04/24 06:07:35;;;;;;;23.10;14.60;;;;;;;8.71;87.69;97107.11;1734419;83;20979;-84
2022/04/24 06:10:03;;;;;;;21.57;14.90;;;;;;;8.84;87.45;97103.55;1734442;83;21051;-83
2022/04/24 06:12:30;;;;;;;27.07;16.20;;;;;;;8.99;87.27;97098.62;1734401;83;21068;-85
2022/04/24 06:15:04;;;;;;;21.45;15.00;;;;;;;9.14;87.49;97093.67;1734508;83;21006;-84
2022/04/24 06:17:31;;;;;;;24.47;15.60;;;;;;;9.30;87.21;97088.17;1733801;83;20979;-83
2022/04/24 06:19:58;;;;;;;23.42;15.15;;;;;;;9.48;87.22;97084.42;1734133;83;21432;-83
2022/04/24 06:22:24;;;;;;;26.77;16.90;;;;;;;9.64;87.24;97075.41;1734289;83;21038;-84
2022/04/24 06:24:51;;;;;;;25.82;15.10;;;;;;;9.80;87.00;97075.62;1734109;83;21543;-84
2022/04/24 06:27:17;;;;;;;24.82;15.85;;;;;;;9.97;86.73;97066.14;1708536;83;21058;-84
2022/04/24 06:29:44;;;;;;;22.93;14.68;;;;;;;10.12;86.47;97064.16;1733979;83;20983;-84
2022/04/24 06:32:10;;;;;;;23.67;14.93;;;;;;;10.30;86.27;97062.97;1733310;83;21082;-84
2022/04/24 06:34:37;;;;;;;25.60;15.50;;;;;;;10.46;86.04;97060.52;1734542;83;21086;-84
2022/04/24 06:37:04;;;;;;;22.55;14.80;;;;;;;10.64;85.79;97065.94;1734061;83;21026;-84
2022/04/24 06:39:31;;;;;;;23.25;14.63;;;;;;;10.78;85.32;97063.53;1734493;83;21022;-84
2022/04/24 06:41:58;;;;;;;20.80;13.60;;;;;;;10.93;84.75;97063.28;1733994;83;20999;-84
2022/04/24 06:44:25;;;;;;;18.52;12.10;;;;;;;11.06;84.68;97060.94;1734532;83;21385;-84
2022/04/24 06:46:52;;;;;;;19.52;12.35;;;;;;;11.19;84.40;97052.39;1734138;83;21066;-84
2022/04/24 06:49:18;;;;;;;19.80;11.65;;;;;;;11.35;84.42;97055.18;1734560;83;20944;-84
2022/04/24 06:51:45;;;;;;;17.85;11.15;;;;;;;11.48;83.71;97052.34;1734630;83;21011;-85
2022/04/24 06:54:12;;;;;;;12.68;9.50;;;;;;;11.63;83.65;97057.84;1731266;83;21059;-84
2022/04/24 06:56:38;;;;;;;15.15;10.10;;;;;;;11.74;81.59;97055.50;1720154;83;20989;-84
2022/04/24 06:59:05;;;;;;;13.88;9.28;;;;;;;11.90;82.31;97058.72;1719979;83;20980;-84
2022/04/24 07:01:32;;;;;;;13.05;8.95;;;;;;;12.01;81.21;97060.35;1720081;83;21516;-84
2022/04/24 07:03:58;;;;;;;12.50;8.33;;;;;;;12.14;80.24;97066.41;1719293;83;21039;-85
2022/04/24 07:06:25;;;;;;;10.50;8.25;;;;;;;12.26;79.63;97068.42;1720205;83;20976;-84
2022/04/24 07:08:52;;;;;;;15.72;8.93;;;;;;;12.38;79.15;97063.44;1719855;83;21535;-84
2022/04/24 07:11:19;;;;;;;15.03;9.25;;;;;;;12.50;78.48;97069.91;1720251;83;21003;-84
2022/04/24 07:13:46;;;;;;;11.25;8.10;;;;;;;12.59;78.52;97082.72;1720514;83;21055;-84
2022/04/24 07:16:13;;;;;;;11.90;8.08;;;;;;;12.73;79.12;97078.45;1720392;83;20964;-83
2022/04/24 07:18:40;;;;;;;15.80;8.53;;;;;;;12.91;79.08;97077.94;1720250;83;20968;-84
2022/04/24 07:21:08;;;;;;;12.75;8.48;;;;;;;13.08;77.41;97086.33;1719081;83;21027;-84
2022/04/24 07:23:35;;;;;;;12.80;8.58;;;;;;;13.22;78.09;97086.92;1719580;83;21047;-85
2022/04/24 07:26:02;;;;;;;10.28;7.70;;;;;;;13.32;77.90;97085.92;1699716;83;21461;-84
2022/04/24 07:28:30;;;;;;;11.83;8.18;;;;;;;13.31;75.92;97085.09;1719589;83;21307;-84
2022/04/24 07:30:57;;;;;;;9.38;7.42;;;;;;;13.31;75.99;97086.88;1719235;83;21024;-84
2022/04/24 07:33:24;;;;;;;13.32;9.03;;;;;;;13.31;74.91;97086.88;1719807;83;21007;-84
2022/04/24 07:35:50;;;;;;;15.20;9.20;;;;;;;13.34;76.06;97078.73;1720232;83;21043;-85
2022/04/24 07:38:17;;;;;;;13.15;8.73;;;;;;;13.39;74.62;97082.45;1720440;83;20992;-84
2022/04/24 07:40:44;;;;;;;11.95;9.33;;;;;;;13.39;74.52;97082.00;1720353;83;21043;-84
2022/04/24 07:43:13;;;;;;;11.55;8.30;;;;;;;13.44;74.49;97076.40;1720366;83;21038;-84
2022/04/24 07:45:49;;;;;;;12.63;9.03;;;;;;;13.45;74.37;97073.66;1720395;83;21421;-83
2022/04/24 07:48:17;;;;;;;14.15;9.15;;;;;;;13.50;74.68;97071.25;1720436;83;21012;-85
2022/04/24 07:50:50;;;;;;;12.73;9.15;;;;;;;13.56;74.08;97061.58;1720294;83;21008;-84
2022/04/24 07:53:18;;;;;;;11.43;8.10;;;;;;;13.59;74.11;97062.25;1720402;83;21019;-85
2022/04/24 07:55:48;;;;;;;10.70;7.95;;;;;;;13.65;73.93;97057.06;1720306;82;20984;-85
2022/04/24 07:58:15;;;;;;;10.82;7.95;;;;;;;13.72;73.52;97057.11;1720462;83;20976;-84
2022/04/24 08:00:42;;;;;;;10.65;7.58;;;;;;;13.78;73.51;97063.87;1720345;83;21045;-85
2022/04/24 08:03:12;;;;;;;9.05;7.40;;;;;;;13.82;70.72;97062.75;1720421;83;20996;-84
2022/04/24 08:05:45;;;;;;;8.90;7.28;;;;;;;13.83;72.24;97060.95;1720286;83;21012;-84
2022/04/24 08:08:18;;;;;;;12.70;8.50;;;;;;;13.92;72.42;97063.09;1720319;83;21528;-84
2022/04/24 08:10:53;;;;;;;12.33;8.60;;;;;;;13.93;70.38;97063.92;1720444;83;21003;-84
2022/04/24 08:13:20;;;;;;;10.65;7.00;;;;;;;13.89;70.16;97061.92;1720288;83;21024;-84
2022/04/24 08:15:49;;;;;;;8.50;6.72;;;;;;;13.94;71.01;97069.63;1720282;83;21035;-83
2022/04/24 08:18:16;;;;;;;8.58;6.35;;;;;;;14.05;71.23;97065.02;1720188;83;21465;-83
2022/04/24 08:20:44;;;;;;;8.80;6.72;;;;;;;14.16;70.55;97064.39;1720370;83;20980;-84
2022/04/24 08:23:13;;;;;;;7.28;5.50;;;;;;;14.24;70.72;97066.97;1720431;83;21106;-84
2022/04/24 08:25:39;;;;;;;7.33;5.60;;;;;;;14.33;70.68;97058.05;1720229;83;21000;-85
2022/04/24 08:28:09;;;;;;;8.28;6.05;;;;;;;14.38;68.60;97059.47;1700090;83;21027;-84
2022/04/24 08:30:40;;;;;;;7.92;5.30;;;;;;;14.45;69.78;97063.12;1720372;83;21015;-84
2022/04/24 08:33:08;;;;;;;7.85;5.58;;;;;;;14.51;69.00;97066.28;1720351;83;21468;-84
2022/04/24 08:35:35;;;;;;;9.58;6.62;;;;;;;14.59;69.29;97064.94;1720409;83;20994;-84
2022/04/24 08:38:02;;;;;;;7.70;5.95;;;;;;;14.66;67.59;97067.63;1720557;83;21043;-84
2022/04/24 08:40:29;;;;;;;7.90;5.67;;;;;;;14.65;68.03;97065.43;1720409;83;21528;-83
2022/04/24 08:42:55;;;;;;;8.40;5.87;;;;;;;14.73;68.92;97068.09;1720470;83;21008;-84
2022/04/24 08:45:27;;;;;;;9.23;6.75;;;;;;;14.80;68.51;97054.80;1720347;83;21113;-84
2022/04/24 08:47:55;;;;;;;11.73;6.62;;;;;;;14.87;68.65;97053.95;1720388;83;20991;-84
2022/04/24 08:50:27;;;;;;;8.08;6.08;;;;;;;14.90;67.87;97058.61;1720263;83;21011;-83
2022/04/24 08:52:56;;;;;;;9.60;6.67;;;;;;;14.95;68.19;97054.80;1719803;83;21091;-84
2022/04/24 08:55:27;;;;;;;11.18;8.15;;;;;;;14.99;68.15;97041.16;1726867;82;21019;-84
2022/04/24 08:57:54;;;;;;;8.23;6.20;;;;;;;14.99;67.14;97038.48;1734169;83;21476;-84
2022/04/24 09:00:21;;;;;;;10.08;7.25;;;;;;;14.96;66.60;97040.03;1734564;83;21011;-84
2022/04/24 09:02:49;;;;;;;10.05;6.37;;;;;;;14.97;66.78;97036.87;1734549;83;21425;-84
2022/04/24 09:05:16;;;;;;;7.95;6.37;;;;;;;15.03;67.79;97037.34;1734545;83;20999;-85
2022/04/24 09:07:43;;;;;;;8.55;6.35;;;;;;;15.10;67.47;97032.48;1734486;83;20982;-84
2022/04/24 09:10:13;;;;;;;11.18;7.22;;;;;;;15.16;67.26;97028.08;1734621;83;21042;-85
2022/04/24 09:12:40;;;;;;;9.03;7.40;;;;;;;15.23;67.09;97028.55;1734651;83;20928;-85
2022/04/24 09:15:08;;;;;;;8.25;6.67;;;;;;;15.26;66.80;97027.49;1734504;83;21534;-84
2022/04/24 09:17:36;;;;;;;10.60;7.97;;;;;;;15.30;66.81;97020.54;1734839;83;20975;-84
2022/04/24 09:20:18;;;;;;;11.12;7.33;;;;;;;15.37;66.55;97010.79;1734566;83;21026;-85
2022/04/24 09:22:47;;;;;;;9.28;6.72;;;;;;;15.38;66.74;97013.36;1734528;83;20975;-85
2022/04/24 09:25:13;;;;;;;8.13;6.58;;;;;;;15.47;66.58;97016.37;1734503;83;21428;-85
2022/04/24 09:27:40;;;;;;;7.03;5.60;;;;;;;15.62;67.37;97011.84;1734519;83;21034;-85
2022/04/24 09:30:16;;;;;;;8.98;6.10;;;;;;;15.79;66.72;97006.25;1734522;83;21046;-85
2022/04/24 09:32:51;;;;;;;7.35;6.25;;;;;;;15.91;66.05;97002.38;1734488;83;21029;-84
2022/04/24 09:35:32;;;;;;;8.30;6.50;;;;;;;15.98;64.34;97000.17;1734537;83;20979;-84
2022/04/24 09:38:14;;;;;;;9.10;6.53;;;;;;;16.02;65.22;97001.69;1734546;83;21003;-84
2022/04/24 09:40:45;;;;;;;7.55;5.42;;;;;;;16.04;63.66;97003.30;1734506;83;21077;-83
2022/04/24 09:43:14;;;;;;;7.33;5.83;;;;;;;16.10;64.68;96997.52;1734325;83;21074;-84
2022/04/24 09:45:47;;;;;;;7.70;5.72;;;;;;;16.20;63.73;97001.74;1734572;83;21026;-84
2022/04/24 09:48:16;;;;;;;6.72;4.65;;;;;;;16.36;64.49;96997.53;1734517;83;21011;-85
2022/04/24 09:50:44;;;;;;;7.55;5.33;;;;;;;16.49;63.01;96996.70;1734528;83;20959;-84
2022/04/24 09:53:16;;;;;;;9.48;6.40;;;;;;;16.63;63.45;96991.23;1734753;83;21015;-84
2022/04/24 09:55:44;;;;;;;6.42;4.60;;;;;;;16.87;64.08;96992.27;1734545;82;21015;-85
2022/04/24 09:58:13;;;;;;;8.53;5.58;;;;;;;17.07;63.50;96980.14;1734706;83;21029;-85
2022/04/24 10:00:44;;;;;;;5.62;4.87;;;;;;;17.24;61.07;96975.39;1734600;83;21035;-84
2022/04/24 10:03:17;;;;;;;6.42;4.90;;;;;;;17.35;60.37;96969.26;1734472;83;21047;-84
2022/04/24 10:05:47;;;;;;;5.43;4.30;;;;;;;17.49;61.69;96969.56;1734791;83;21038;-83
2022/04/24 10:08:19;;;;;;;5.37;4.30;;;;;;;17.70;61.64;96967.11;1734145;83;21487;-85
2022/04/24 10:10:46;;;;;;;7.83;5.25;;;;;;;17.89;60.21;96963.88;1734400;83;21018;-85
2022/04/24 10:13:13;;;;;;;6.33;5.20;;;;;;;17.97;58.95;96961.95;1734515;83;20964;-86
2022/04/24 10:16:12;;;;;;;7.47;4.40;;;;;;;18.15;60.57;96965.06;1734627;83;21064;-85
2022/04/24 10:19:13;;;;;;;5.20;4.50;;;;;;;18.40;59.81;96972.53;1734370;83;21011;-85
2022/04/24 10:22:03;;;;;;;4.33;3.83;;;;;;;18.66;58.94;96967.45;1728731;83;20996;-85
2022/04/24 10:24:42;;;;;;;4.83;4.12;;;;;;;18.84;57.51;96961.95;1734614;83;21058;-85
2022/04/24 10:27:11;;;;;;;4.95;4.05;;;;;;;19.00;57.69;96963.41;1734668;83;21457;-82
2022/04/24 10:29:58;;;;;;;4.83;4.33;;;;;;;19.19;56.03;96953.38;1734704;83;21468;-83
2022/04/24 10:32:33;;;;;;;6.20;4.58;;;;;;;19.29;52.80;96952.16;1734283;83;21449;-84
2022/04/24 10:35:01;;;;;;;6.47;4.30;;;;;;;19.37;54.75;96936.27;1734722;83;21389;-84
2022/04/24 10:37:31;;;;;;;5.37;4.25;;;;;;;19.55;54.84;96946.95;1734578;83;21007;-83
2022/04/24 10:40:00;;;;;;;5.65;4.20;;;;;;;19.79;55.19;96944.03;1709546;83;21011;-84
2022/04/24 10:42:35;;;;;;;6.83;5.12;;;;;;;20.63;53.77;96942.30;1734435;83;21033;-83
2022/04/24 10:45:15;;;;;;;6.10;4.28;;;;;;;21.56;50.72;96935.05;1734447;83;21054;-84
2022/04/24 10:47:53;;;;;;;6.75;4.83;;;;;;;22.51;51.89;96928.99;1734429;83;21038;-84
2022/04/24 10:50:22;;;;;;;9.40;4.70;;;;;;;23.39;46.84;96918.29;1734528;83;21003;-83
2022/04/24 10:52:56;;;;;;;8.33;5.12;;;;;;;23.93;46.24;96919.27;1734371;83;21002;-85
2022/04/24 10:55:26;;;;;;;7.12;5.22;;;;;;;24.72;46.58;96906.27;1731220;83;21118;-84
2022/04/24 10:57:57;;;;;;;;;;;;;;;25.31;41.82;96905.48;1722885;83;21389;-84
2022/04/24 11:00:34;;;;;;;5.65;5.10;;;;;;;25.64;41.27;96900.14;1720185;83;20096;-85
2022/04/24 11:03:14;;;;;;;5.53;4.78;;;;;;;25.79;39.30;96893.52;1720303;83;20992;-85
2022/04/24 11:05:44;;;;;;;6.22;4.47;;;;;;;26.11;39.29;96897.75;1720325;83;21023;-85
2022/04/24 11:08:20;;;;;;;6.45;4.92;;;;;;;26.58;40.39;96903.47;1720406;83;21096;-85
2022/04/24 11:10:50;;;;;;;4.92;4.42;;;;;;;26.92;38.63;96898.75;1720340;83;21039;-83
2022/04/24 11:13:20;;;;;;;6.10;4.40;;;;;;;27.23;39.07;96887.09;1720205;83;21504;-85
2022/04/24 11:15:49;;;;;;;5.62;4.62;;;;;;;27.61;38.64;96892.63;1720558;83;20976;-85
2022/04/24 11:18:23;;;;;;;4.83;4.30;;;;;;;27.24;34.87;96886.89;1720287;83;21008;-85
2022/04/24 11:20:58;;;;;;;5.35;4.95;;;;;;;27.12;37.00;96893.77;1720340;83;21406;-85
2022/04/24 11:23:28;;;;;;;6.47;4.55;;;;;;;27.58;37.23;96892.13;1720344;83;20996;-85
2022/04/24 11:25:56;;;;;;;5.33;4.33;;;;;;;28.06;37.31;96879.17;1720430;83;21433;-85
2022/04/24 11:28:39;;;;;;;4.08;3.70;;;;;;;28.31;34.54;96886.27;1720362;83;21362;-85
2022/04/24 11:31:21;;;;;;;5.60;4.33;;;;;;;28.51;34.34;96881.13;1720734;83;21004;-85
2022/04/24 11:33:57;;;;;;;7.03;4.20;;;;;;;28.73;34.33;96892.97;1724223;83;21007;-85